Time;durP1;ratioP1;P1;durP2;ratioP2;P2;SDS_P1;SDS_P2;PMS_P1;PMS_P2;Temp;Humidity;BMP_temperature;BMP_pressure;BME280_temperature;BME280_humidity;BME280_pressure;Samples;Min_cycle;Max_cycle;Signal;HPM_P1;HPM_P2
2022/11/07 00:02:16;;;;;;;1.23;0.23;;;;;;;11.07;65.02;95385.84;4348366;32;20207;-64
2022/11/07 00:04:44;;;;;;;0.17;0.17;;;;;;;11.11;66.16;95394.81;4370062;32;20185;-64
2022/11/07 00:07:11;;;;;;;0.33;0.33;;;;;;;11.09;66.38;95396.97;4345520;32;20189;-64
2022/11/07 00:09:39;;;;;;;0.20;0.20;;;;;;;11.03;64.72;95402.38;4345808;32;20209;-63
2022/11/07 00:12:05;;;;;;;1.50;0.47;;;;;;;11.05;66.02;95396.78;4375097;32;20272;-64
2022/11/07 00:14:34;;;;;;;0.03;0.03;;;;;;;11.00;65.02;95400.31;4349894;32;20265;-65
2022/11/07 00:17:00;;;;;;;0.63;0.40;;;;;;;10.99;65.42;95409.38;4355733;32;20192;-64
2022/11/07 00:19:26;;;;;;;0.20;0.20;;;;;;;11.05;65.38;95394.12;4291715;32;20188;-64
2022/11/07 00:21:54;;;;;;;0.10;0.10;;;;;;;11.11;66.68;95397.47;4349019;32;20305;-64
2022/11/07 00:24:22;;;;;;;0.10;0.10;;;;;;;11.13;66.31;95398.75;4351520;32;20180;-64
2022/11/07 00:26:47;;;;;;;0.67;0.53;;;;;;;10.98;65.82;95413.09;4340740;32;20250;-64
2022/11/07 00:29:21;;;;;;;0.20;0.20;;;;;;;11.06;65.11;95405.53;4345823;32;20244;-63
2022/11/07 00:31:54;;;;;;;0.03;0.03;;;;;;;11.06;64.53;95413.47;4345875;32;20191;-63
2022/11/07 00:34:21;;;;;;;0.20;0.20;;;;;;;11.01;64.55;95417.81;4338972;32;20231;-63
2022/11/07 00:36:47;;;;;;;0.30;0.30;;;;;;;11.02;63.67;95411.41;4352566;32;20184;-64
2022/11/07 00:39:14;;;;;;;0.13;0.10;;;;;;;10.99;65.62;95419.19;4326396;32;20202;-64
2022/11/07 00:41:40;;;;;;;0.47;0.47;;;;;;;10.92;66.32;95411.59;4342963;32;20241;-64
2022/11/07 00:44:07;;;;;;;0.20;0.20;;;;;;;10.96;66.77;95425.88;4337733;32;20188;-64
2022/11/07 00:46:35;;;;;;;0.13;0.13;;;;;;;11.02;66.29;95423.91;4340889;32;20219;-65
2022/11/07 00:49:00;;;;;;;0.30;0.30;;;;;;;10.89;67.13;95430.78;4372645;32;20189;-65
2022/11/07 00:51:28;;;;;;;0.10;0.10;;;;;;;10.94;66.92;95427.25;4351254;32;20184;-64
2022/11/07 00:53:55;;;;;;;0.00;0.00;;;;;;;10.94;64.81;95427.25;4331417;32;20260;-64
2022/11/07 00:56:24;;;;;;;0.20;0.20;;;;;;;10.95;63.66;95429.59;4381194;32;20288;-63
2022/11/07 00:58:59;;;;;;;0.40;0.40;;;;;;;10.95;64.93;95434.91;4350407;32;20196;-63
2022/11/07 01:01:29;;;;;;;0.30;0.30;;;;;;;11.06;64.31;95432.84;4378587;32;20180;-63
2022/11/07 01:06:45;;;;;;;0.20;0.20;;;;;;;11.00;64.69;95442.81;4356250;32;20210;-63
2022/11/07 01:09:20;;;;;;;0.00;0.00;;;;;;;11.09;65.18;95448.19;4295190;32;20201;-63
2022/11/07 01:11:47;;;;;;;0.10;0.10;;;;;;;11.21;65.53;95443.22;4351748;32;20224;-64
2022/11/07 01:14:15;;;;;;;0.27;0.27;;;;;;;11.26;64.63;95442.31;4364044;32;20203;-63
2022/11/07 01:16:44;;;;;;;0.23;0.23;;;;;;;11.38;65.16;95447.94;4350014;32;20244;-63
2022/11/07 01:19:11;;;;;;;0.30;0.30;;;;;;;11.42;64.51;95442.84;4370093;32;20188;-63
2022/11/07 01:21:38;;;;;;;0.10;0.10;;;;;;;11.35;65.19;95443.22;4359754;32;20235;-63
2022/11/07 01:24:06;;;;;;;0.27;0.27;;;;;;;11.38;64.60;95445.28;4369252;32;20188;-64
2022/11/07 01:26:35;;;;;;;0.27;0.27;;;;;;;11.45;66.31;95447.53;4358199;32;20188;-63
2022/11/07 01:29:02;;;;;;;0.00;0.00;;;;;;;11.43;65.19;95455.03;4346803;32;20235;-64
2022/11/07 01:31:30;;;;;;;0.23;0.23;;;;;;;11.47;67.67;95456.78;4356928;32;20193;-63
2022/11/07 01:33:58;;;;;;;0.20;0.20;;;;;;;11.55;65.73;95450.78;4368836;32;20211;-64
2022/11/07 01:36:26;;;;;;;0.00;0.00;;;;;;;11.59;66.11;95451.78;4340920;32;20189;-64
2022/11/07 01:38:52;;;;;;;0.13;0.13;;;;;;;11.55;65.93;95447.34;4353748;32;20189;-64
2022/11/07 01:41:35;;;;;;;0.13;0.13;;;;;;;11.57;66.00;95455.81;4343722;32;20189;-63
2022/11/07 01:44:06;;;;;;;0.30;0.30;;;;;;;11.53;67.33;95460.94;4331493;32;20255;-64
2022/11/07 01:46:33;;;;;;;0.00;0.00;;;;;;;11.51;68.26;95457.78;4327934;32;20189;-63
2022/11/07 01:49:18;;;;;;;0.00;0.00;;;;;;;11.48;69.18;95465.53;4346509;32;20236;-63
2022/11/07 01:52:00;;;;;;;0.00;0.00;;;;;;;11.48;72.24;95462.88;4338720;32;20279;-64
2022/11/07 01:54:43;;;;;;;0.27;0.20;;;;;;;11.48;70.87;95458.37;4365426;32;20193;-63
2022/11/07 01:57:18;;;;;;;1.33;0.50;;;;;;;11.31;70.68;95474.09;4349608;32;20303;-64
2022/11/07 01:59:49;;;;;;;0.10;0.10;;;;;;;11.44;69.21;95472.53;4366890;32;20184;-64
2022/11/07 02:02:16;;;;;;;0.20;0.20;;;;;;;11.38;69.57;95473.72;4378760;32;20185;-63
2022/11/07 02:04:43;;;;;;;0.00;0.00;;;;;;;11.42;70.35;95474.72;4360691;32;20177;-63
2022/11/07 02:07:21;;;;;;;0.40;0.40;;;;;;;11.36;69.92;95472.16;4360398;32;20235;-63
2022/11/07 02:09:48;;;;;;;0.73;0.20;;;;;;;11.25;70.26;95468.09;4352894;32;20241;-63
2022/11/07 02:12:16;;;;;;;0.23;0.23;;;;;;;11.30;70.73;95472.53;4350024;32;20227;-66
2022/11/07 02:14:43;;;;;;;0.10;0.10;;;;;;;11.37;69.48;95472.94;4330253;32;20220;-63
2022/11/07 02:17:16;;;;;;;0.30;0.30;;;;;;;11.30;69.75;95473.31;4351846;32;20232;-63
2022/11/07 02:19:54;;;;;;;0.00;0.00;;;;;;;11.40;69.73;95477.66;4364620;32;20189;-63
2022/11/07 02:22:54;;;;;;;0.00;0.00;;;;;;;11.49;69.33;95475.09;4348049;32;20192;-63
2022/11/07 02:25:21;;;;;;;0.10;0.10;;;;;;;11.41;70.33;95476.59;4342356;32;20232;-64
2022/11/07 02:27:51;;;;;;;0.30;0.30;;;;;;;11.38;70.59;95477.16;4342798;32;20181;-64
2022/11/07 02:30:22;;;;;;;0.50;0.50;;;;;;;11.43;71.14;95479.69;4373471;32;20185;-64
2022/11/07 02:32:49;;;;;;;0.77;0.33;;;;;;;11.39;72.86;95468.13;4356136;32;20185;-64
2022/11/07 02:35:52;;;;;;;0.37;0.37;;;;;;;11.31;72.89;95468.78;4358913;32;20257;-64
2022/11/07 02:38:23;;;;;;;0.33;0.33;;;;;;;11.31;73.43;95468.78;4319092;33;20201;-63
2022/11/07 02:40:57;;;;;;;0.40;0.40;;;;;;;11.29;73.57;95470.94;4320884;32;20284;-63
2022/11/07 02:43:27;;;;;;;1.13;1.13;;;;;;;11.22;74.68;95471.31;4300064;33;20185;-63
2022/11/07 02:45:54;;;;;;;1.23;1.23;;;;;;;11.26;74.85;95468.88;4339750;32;20208;-64
2022/11/07 02:48:21;;;;;;;1.17;1.17;;;;;;;11.21;74.82;95472.44;4354444;32;20252;-64
2022/11/07 02:50:50;;;;;;;2.20;2.10;;;;;;;11.22;75.77;95468.66;4353947;32;20236;-64
2022/11/07 02:53:20;;;;;;;1.60;1.50;;;;;;;11.24;75.37;95473.69;4355541;32;20208;-64
2022/11/07 02:55:50;;;;;;;1.13;1.13;;;;;;;11.12;75.93;95470.72;4359188;32;20219;-63
2022/11/07 02:58:15;;;;;;;0.50;0.50;;;;;;;11.09;76.45;95464.13;4338280;32;20207;-64
2022/11/07 03:00:41;;;;;;;0.50;0.50;;;;;;;11.09;76.59;95463.34;4354230;32;20173;-64
2022/11/07 03:03:11;;;;;;;2.73;1.40;;;;;;;11.26;76.16;95467.00;4368465;32;20189;-63
2022/11/07 03:05:39;;;;;;;0.87;0.50;;;;;;;11.18;76.25;95467.69;4363986;32;20226;-64
2022/11/07 03:08:06;;;;;;;0.47;0.47;;;;;;;11.21;76.28;95471.63;4373722;32;20193;-64
2022/11/07 03:10:31;;;;;;;0.30;0.30;;;;;;;11.20;76.84;95464.75;4373084;32;20263;-64
2022/11/07 03:12:59;;;;;;;0.47;0.37;;;;;;;11.16;77.42;95466.41;4380291;32;20189;-63
2022/11/07 03:15:24;;;;;;;0.47;0.47;;;;;;;11.21;77.15;95459.16;4366793;32;20188;-63
2022/11/07 03:17:51;;;;;;;0.23;0.23;;;;;;;11.06;77.31;95455.97;4369771;32;20814;-63
2022/11/07 03:20:17;;;;;;;2.83;0.50;;;;;;;11.09;78.11;95455.38;4341872;32;20226;-63
2022/11/07 03:22:50;;;;;;;0.20;0.20;;;;;;;11.03;77.40;95463.44;4351108;32;20228;-63
2022/11/07 03:25:18;;;;;;;0.30;0.30;;;;;;;11.09;77.73;95476.63;4341895;32;20180;-63
2022/11/07 03:27:47;;;;;;;0.33;0.33;;;;;;;11.13;77.31;95475.75;4356074;32;20190;-63
2022/11/07 03:30:14;;;;;;;0.33;0.33;;;;;;;11.26;77.14;95476.84;4355380;32;20198;-63
2022/11/07 03:32:40;;;;;;;0.30;0.30;;;;;;;11.12;77.83;95476.03;4372679;32;20223;-64
2022/11/07 03:35:08;;;;;;;13.63;1.50;;;;;;;11.06;78.55;95475.34;4349130;32;20249;-64
2022/11/07 03:37:35;;;;;;;0.20;0.20;;;;;;;11.05;78.26;95478.28;4363502;32;20196;-64
2022/11/07 03:40:04;;;;;;;0.30;0.30;;;;;;;11.20;78.19;95480.69;4383248;32;20260;-64
2022/11/07 03:42:32;;;;;;;0.20;0.20;;;;;;;11.07;78.58;95484.09;4317843;32;20193;-63
2022/11/07 03:44:58;;;;;;;0.00;0.00;;;;;;;11.09;78.18;95477.41;4354053;32;20193;-64
2022/11/07 03:47:26;;;;;;;0.40;0.30;;;;;;;11.13;77.99;95482.94;4340819;32;20201;-63
2022/11/07 03:49:53;;;;;;;0.30;0.30;;;;;;;11.13;78.14;95493.53;4374444;32;20196;-63
2022/11/07 03:52:19;;;;;;;0.10;0.10;;;;;;;11.08;78.11;95496.28;4375925;32;20180;-63
2022/11/07 03:54:46;;;;;;;0.30;0.30;;;;;;;11.01;78.37;95497.44;4365043;32;20276;-64
2022/11/07 03:57:13;;;;;;;1.50;0.40;;;;;;;10.93;79.01;95492.03;4367716;32;20256;-63
2022/11/07 03:59:39;;;;;;;0.30;0.30;;;;;;;11.07;78.72;95492.84;4357961;32;20196;-63
2022/11/07 04:02:05;;;;;;;0.20;0.20;;;;;;;10.91;78.82;95502.94;4376731;32;20197;-63
2022/11/07 04:04:34;;;;;;;0.10;0.10;;;;;;;11.01;78.34;95492.12;4376416;32;20199;-64
2022/11/07 04:07:00;;;;;;;0.10;0.10;;;;;;;11.05;78.28;95494.19;4362720;32;20189;-63
2022/11/07 04:09:25;;;;;;;0.20;0.20;;;;;;;11.00;78.08;95505.72;4359576;32;20188;-64
2022/11/07 04:17:24;;;;;;;0.20;0.20;;;;;;;10.94;77.76;95518.28;4340215;32;20204;-64
2022/11/07 04:19:56;;;;;;;0.10;0.10;;;;;;;11.02;77.91;95525.56;4301812;32;20251;-64
2022/11/07 04:22:26;;;;;;;0.03;0.03;;;;;;;11.01;78.47;95513.38;4350332;32;20185;-63
2022/11/07 04:24:53;;;;;;;0.00;0.00;;;;;;;10.92;77.94;95520.44;4343503;32;20308;-63
2022/11/07 04:30:22;;;;;;;0.40;0.40;;;;;;;10.95;78.48;95514.53;4306700;32;20204;-63
2022/11/07 04:32:52;;;;;;;0.10;0.10;;;;;;;10.88;78.28;95521.28;4305567;32;20204;-63
2022/11/07 04:35:20;;;;;;;0.00;0.00;;;;;;;10.99;78.95;95512.91;4351323;32;20185;-63
2022/11/07 04:37:46;;;;;;;0.10;0.10;;;;;;;10.91;78.43;95526.03;4327283;32;20192;-63
2022/11/07 04:40:28;;;;;;;0.17;0.17;;;;;;;10.96;78.17;95513.47;4318877;32;20189;-63
2022/11/07 04:42:54;;;;;;;0.23;0.23;;;;;;;10.90;78.02;95524.44;4350402;32;20264;-63
2022/11/07 04:45:21;;;;;;;0.10;0.10;;;;;;;10.91;78.67;95528.69;4344349;32;20248;-63
2022/11/07 04:47:48;;;;;;;0.30;0.30;;;;;;;10.89;78.85;95534.28;4348708;32;20250;-63
2022/11/07 04:50:16;;;;;;;0.17;0.17;;;;;;;10.73;79.74;95532.16;4347505;32;20199;-63
2022/11/07 04:52:45;;;;;;;0.30;0.30;;;;;;;10.72;79.74;95534.00;4340446;32;20207;-63
2022/11/07 04:55:25;;;;;;;0.27;0.27;;;;;;;10.77;79.82;95528.63;4334759;32;20247;-63
2022/11/07 04:57:53;;;;;;;0.10;0.10;;;;;;;10.88;79.44;95530.03;4339280;32;20331;-63
2022/11/07 05:00:19;;;;;;;0.20;0.20;;;;;;;10.80;79.60;95528.06;4347065;32;20274;-63
2022/11/07 05:02:46;;;;;;;0.40;0.40;;;;;;;10.82;79.05;95531.19;4341208;32;20181;-64
2022/11/07 05:05:12;;;;;;;0.30;0.30;;;;;;;10.80;79.67;95533.38;4355808;32;20256;-63
2022/11/07 05:07:42;;;;;;;0.20;0.20;;;;;;;10.74;79.93;95539.03;4326734;32;20235;-63
2022/11/07 05:10:18;;;;;;;0.30;0.30;;;;;;;10.81;79.71;95528.81;4364133;32;20211;-63
2022/11/07 05:12:46;;;;;;;0.20;0.20;;;;;;;10.72;80.08;95541.97;4365251;32;20216;-63
2022/11/07 05:15:11;;;;;;;0.20;0.20;;;;;;;10.67;80.29;95537.53;4371631;32;20184;-63
2022/11/07 05:17:37;;;;;;;0.30;0.30;;;;;;;10.71;80.46;95539.59;4373249;32;20185;-63
2022/11/07 05:20:02;;;;;;;0.20;0.20;;;;;;;10.70;80.35;95541.47;4358011;32;20203;-64
2022/11/07 05:25:16;;;;;;;0.10;0.10;;;;;;;10.69;80.13;95542.53;4361353;32;20226;-63
2022/11/07 05:27:43;;;;;;;0.50;0.50;;;;;;;10.78;79.68;95551.44;4337823;32;20261;-63
2022/11/07 05:30:10;;;;;;;0.10;0.10;;;;;;;10.78;79.97;95545.34;4345391;32;20225;-63
2022/11/07 05:32:40;;;;;;;0.50;0.40;;;;;;;10.63;80.24;95554.31;4371467;32;20252;-64
2022/11/07 05:35:06;;;;;;;0.30;0.30;;;;;;;10.57;80.94;95555.47;4375475;32;20172;-64
2022/11/07 05:37:32;;;;;;;1.23;0.37;;;;;;;10.62;79.10;95553.50;4363613;32;20282;-64
2022/11/07 05:39:58;;;;;;;0.23;0.23;;;;;;;10.73;79.31;95556.81;4360680;32;20177;-63
2022/11/07 05:42:24;;;;;;;0.20;0.20;;;;;;;10.64;77.25;95556.66;4383957;32;20307;-63
2022/11/07 05:44:51;;;;;;;0.30;0.23;;;;;;;10.75;76.44;95559.97;4371306;32;20267;-64
2022/11/07 05:47:18;;;;;;;0.10;0.10;;;;;;;10.83;75.83;95559.31;4376072;32;20188;-63
2022/11/07 05:49:47;;;;;;;0.33;0.30;;;;;;;10.93;75.12;95558.37;4354198;32;20196;-63
2022/11/07 05:52:14;;;;;;;0.20;0.20;;;;;;;10.88;74.87;95553.12;4379966;32;20193;-64
2022/11/07 05:54:40;;;;;;;2.27;0.27;;;;;;;10.88;74.37;95553.94;4338732;32;20312;-63
2022/11/07 05:57:07;;;;;;;0.13;0.13;;;;;;;10.78;75.40;95562.06;4377827;32;20188;-64
2022/11/07 05:59:33;;;;;;;0.30;0.30;;;;;;;10.78;75.55;95566.56;4375541;32;20236;-64
2022/11/07 06:02:02;;;;;;;0.53;0.53;;;;;;;10.69;75.93;95569.06;4372161;32;20215;-64
2022/11/07 06:04:29;;;;;;;0.20;0.20;;;;;;;10.71;75.63;95569.59;4383003;32;20193;-64
2022/11/07 06:06:57;;;;;;;0.17;0.17;;;;;;;10.81;74.97;95566.78;4361887;32;20192;-63
2022/11/07 06:09:25;;;;;;;0.30;0.30;;;;;;;10.79;74.47;95571.59;4384549;32;20230;-63
2022/11/07 06:11:50;;;;;;;0.20;0.20;;;;;;;10.76;74.67;95574.03;4367266;32;20193;-64
2022/11/07 06:14:17;;;;;;;0.37;0.37;;;;;;;10.82;74.43;95567.56;4375194;32;20212;-64
2022/11/07 06:16:44;;;;;;;0.13;0.13;;;;;;;10.70;74.10;95583.13;4375028;32;20209;-64
2022/11/07 06:19:13;;;;;;;0.20;0.20;;;;;;;10.65;73.89;95573.37;4372919;32;20239;-64
2022/11/07 06:21:38;;;;;;;0.30;0.30;;;;;;;10.80;73.64;95581.13;4356449;32;20192;-64
2022/11/07 06:24:04;;;;;;;0.20;0.20;;;;;;;10.70;73.55;95583.94;4379311;32;20207;-63
2022/11/07 06:26:31;;;;;;;0.60;0.60;;;;;;;10.66;74.51;95581.06;4355446;32;20183;-63
2022/11/07 06:28:57;;;;;;;0.73;0.67;;;;;;;10.61;74.22;95580.31;4383580;32;20251;-63
2022/11/07 06:31:24;;;;;;;0.37;0.37;;;;;;;10.67;73.90;95584.50;4375976;32;20185;-63
2022/11/07 06:33:50;;;;;;;0.30;0.30;;;;;;;10.59;74.50;95582.50;4351855;32;20355;-63
2022/11/07 06:36:16;;;;;;;0.30;0.30;;;;;;;10.66;74.03;95582.91;4360428;32;20227;-63
2022/11/07 06:38:43;;;;;;;0.30;0.30;;;;;;;10.60;73.96;95584.06;4377573;32;20260;-63
2022/11/07 06:41:12;;;;;;;0.30;0.30;;;;;;;10.54;73.94;95593.97;4384320;32;20248;-64
2022/11/07 06:43:37;;;;;;;5.57;2.27;;;;;;;10.53;74.53;95586.28;4366513;32;20229;-45
2022/11/07 06:46:06;;;;;;;0.80;0.80;;;;;;;11.13;91.75;95586.47;4379920;32;20189;-42
2022/11/07 06:48:32;;;;;;;2.70;1.30;;;;;;;11.79;97.93;95586.19;4374388;32;20222;-47
2022/11/07 06:51:03;;;;;;;0.40;0.40;;;;;;;12.43;100.00;95587.06;4371489;32;20196;-42
2022/11/07 06:53:28;;;;;;;0.50;0.50;;;;;;;12.71;94.65;95590.44;4380165;32;20198;-46
2022/11/07 06:55:55;;;;;;;0.17;0.17;;;;;;;13.26;93.85;95595.63;4364011;32;20251;-61
2022/11/07 06:58:21;;;;;;;0.20;0.20;;;;;;;13.19;84.06;95598.69;4375927;32;20184;-61
2022/11/07 07:00:47;;;;;;;0.50;0.50;;;;;;;12.65;72.09;95607.62;4385308;32;20185;-61
2022/11/07 07:03:13;;;;;;;0.40;0.40;;;;;;;12.21;69.90;95609.03;4373358;32;20189;-61
2022/11/07 07:05:38;;;;;;;0.27;0.27;;;;;;;11.82;70.40;95612.19;4371556;32;20188;-61
2022/11/07 07:08:05;;;;;;;0.23;0.23;;;;;;;11.56;70.95;95617.09;4389922;32;20208;-61
2022/11/07 07:10:36;;;;;;;1.60;0.63;;;;;;;11.38;71.13;95617.94;4383975;32;20189;-61
2022/11/07 07:13:01;;;;;;;0.33;0.20;;;;;;;11.13;72.32;95621.78;4378766;32;20197;-62
2022/11/07 07:15:27;;;;;;;0.30;0.30;;;;;;;11.07;73.48;95630.09;4375242;32;20180;-61
2022/11/07 07:17:52;;;;;;;0.33;0.33;;;;;;;10.93;73.89;95624.75;4381880;32;20257;-63
2022/11/07 07:20:17;;;;;;;1.10;0.87;;;;;;;10.83;74.53;95625.66;4383707;32;20189;-43
2022/11/07 07:22:43;;;;;;;1.03;0.43;;;;;;;12.34;98.56;95623.41;4382827;32;20230;-41
2022/11/07 07:25:09;;;;;;;0.87;0.87;;;;;;;12.70;95.22;95626.13;4372716;32;20226;-43
2022/11/07 07:27:34;;;;;;;0.30;0.30;;;;;;;13.16;90.29;95627.81;4370108;32;20184;-43
2022/11/07 07:29:59;;;;;;;0.50;0.50;;;;;;;13.62;86.10;95630.19;4375057;32;20185;-42
2022/11/07 07:32:25;;;;;;;0.43;0.37;;;;;;;13.87;81.83;95615.44;4382846;32;20199;-42
2022/11/07 07:34:51;;;;;;;0.27;0.27;;;;;;;14.07;79.57;95625.56;4386258;32;20276;-42
2022/11/07 07:37:17;;;;;;;0.80;0.80;;;;;;;14.26;78.02;95626.09;4371771;32;20189;-43
2022/11/07 07:39:42;;;;;;;0.47;0.47;;;;;;;14.32;76.81;95616.88;4379113;32;20184;-42
2022/11/07 07:42:08;;;;;;;0.10;0.10;;;;;;;14.51;76.33;95624.66;4386383;32;20192;-43
2022/11/07 07:44:33;;;;;;;0.40;0.40;;;;;;;14.59;73.96;95626.53;4377527;32;20211;-43
2022/11/07 07:46:59;;;;;;;0.30;0.30;;;;;;;14.69;70.99;95633.47;4382551;32;20197;-41
2022/11/07 07:49:24;;;;;;;0.47;0.47;;;;;;;14.60;71.86;95630.00;4373924;32;20205;-62
2022/11/07 07:51:50;;;;;;;0.30;0.30;;;;;;;14.08;64.42;95630.59;4363641;32;20201;-63
2022/11/07 07:54:16;;;;;;;2.00;0.47;;;;;;;13.01;66.95;95635.03;4376793;32;20247;-62
2022/11/07 07:56:42;;;;;;;0.27;0.27;;;;;;;12.64;68.79;95633.44;4353542;32;20281;-62
2022/11/07 07:59:08;;;;;;;0.43;0.43;;;;;;;12.21;70.00;95624.22;4364441;32;20189;-67
2022/11/07 08:01:35;;;;;;;0.10;0.10;;;;;;;11.86;72.05;95623.78;4353146;32;20256;-67
2022/11/07 08:04:06;;;;;;;0.27;0.27;;;;;;;11.74;72.68;95626.09;4375502;32;20196;-65
2022/11/07 08:06:33;;;;;;;0.53;0.53;;;;;;;11.67;73.74;95625.69;4383297;32;20188;-64
2022/11/07 08:08:58;;;;;;;0.10;0.10;;;;;;;11.59;74.52;95627.16;4386547;32;20196;-66
2022/11/07 08:11:24;;;;;;;0.40;0.40;;;;;;;11.56;73.94;95626.94;4371915;32;20202;-64
2022/11/07 08:13:51;;;;;;;3.90;1.27;;;;;;;11.52;76.42;95626.72;4369751;32;20240;-62
2022/11/07 08:16:16;;;;;;;1.13;0.50;;;;;;;11.53;74.65;95627.53;4370671;32;20188;-63
2022/11/07 08:18:43;;;;;;;0.50;0.50;;;;;;;11.53;74.65;95630.19;4361164;32;20256;-62
2022/11/07 08:21:10;;;;;;;0.97;0.70;;;;;;;11.56;75.46;95622.41;4377393;32;20218;-64
2022/11/07 08:23:35;;;;;;;0.30;0.30;;;;;;;11.52;74.18;95626.72;4365445;32;20203;-67
2022/11/07 08:26:03;;;;;;;0.40;0.40;;;;;;;11.48;74.01;95627.59;4389991;32;20192;-66
2022/11/07 08:28:32;;;;;;;8.53;6.17;;;;;;;11.53;74.90;95625.66;4354364;32;20197;-67
2022/11/07 08:31:02;;;;;;;3.53;3.23;;;;;;;11.62;74.33;95629.25;4347091;32;20184;-64
2022/11/07 08:33:30;;;;;;;4.07;3.67;;;;;;;11.67;73.15;95625.69;4334159;32;20192;-66
2022/11/07 08:35:59;;;;;;;2.43;2.33;;;;;;;11.71;75.06;95627.47;4361236;32;20238;-65
2022/11/07 08:38:27;;;;;;;1.43;1.33;;;;;;;11.77;74.78;95638.84;4338174;32;20178;-67
2022/11/07 08:40:53;;;;;;;0.63;0.63;;;;;;;11.80;74.28;95638.25;4367832;32;20210;-67
2022/11/07 08:43:20;;;;;;;0.47;0.47;;;;;;;11.91;72.81;95641.50;4364056;32;20228;-65
2022/11/07 08:45:56;;;;;;;1.80;0.47;;;;;;;12.02;71.79;95637.59;4374440;32;20203;-66
2022/11/07 08:48:26;;;;;;;0.40;0.40;;;;;;;12.14;71.77;95640.56;4332006;32;20300;-66
2022/11/07 08:50:54;;;;;;;0.20;0.20;;;;;;;12.13;71.50;95644.28;4344536;32;20285;-65
2022/11/07 08:53:21;;;;;;;0.00;0.00;;;;;;;12.14;71.44;95643.22;4365262;32;20254;-68
2022/11/07 08:55:48;;;;;;;0.10;0.10;;;;;;;12.29;70.29;95640.25;4342132;32;20188;-63
2022/11/07 08:58:15;;;;;;;0.30;0.30;;;;;;;12.32;69.81;95646.84;4374675;32;20188;-69
2022/11/07 09:00:42;;;;;;;2.47;2.27;;;;;;;12.30;72.07;95644.50;4373050;32;20184;-67
2022/11/07 09:03:10;;;;;;;0.83;0.83;;;;;;;12.40;70.61;95643.50;4361523;32;20247;-70
2022/11/07 09:05:38;;;;;;;0.33;0.33;;;;;;;12.47;70.23;95641.22;4381325;32;20188;-66
2022/11/07 09:08:05;;;;;;;0.30;0.30;;;;;;;12.50;68.56;95645.97;4366752;32;20239;-63
2022/11/07 09:10:33;;;;;;;0.30;0.30;;;;;;;12.53;69.92;95650.69;4377333;32;20228;-65
2022/11/07 09:13:01;;;;;;;0.20;0.20;;;;;;;12.51;69.76;95652.88;4372095;32;20188;-64
2022/11/07 09:15:27;;;;;;;0.80;0.80;;;;;;;12.63;69.13;95641.72;4362965;32;20207;-65
2022/11/07 09:18:01;;;;;;;0.40;0.40;;;;;;;12.69;68.91;95646.63;4341373;32;20254;-63
2022/11/07 09:20:28;;;;;;;1.80;0.60;;;;;;;12.83;67.73;95654.63;4310690;32;20192;-64
2022/11/07 09:22:57;;;;;;;0.20;0.20;;;;;;;12.83;67.44;95649.28;4372855;32;20276;-69
2022/11/07 09:25:25;;;;;;;1.40;0.30;;;;;;;12.98;68.21;95659.59;4347238;32;20301;-65
2022/11/07 09:27:55;;;;;;;0.40;0.30;;;;;;;13.09;69.00;95654.84;4361489;32;20275;-64
2022/11/07 09:30:22;;;;;;;0.07;0.07;;;;;;;13.09;67.94;95655.63;4371536;32;20255;-67
2022/11/07 09:32:54;;;;;;;0.37;0.37;;;;;;;13.23;67.80;95655.63;4296394;32;20184;-67
2022/11/07 09:35:20;;;;;;;0.20;0.20;;;;;;;13.33;67.20;95652.72;4369902;32;20202;-63
2022/11/07 09:37:52;;;;;;;0.33;0.33;;;;;;;13.36;66.14;95653.97;4353244;32;20197;-62
2022/11/07 09:40:37;;;;;;;1.00;0.67;;;;;;;13.34;66.53;95656.94;4347414;32;20196;-62
2022/11/07 09:43:38;;;;;;;0.20;0.20;;;;;;;13.47;66.54;95662.53;4364028;32;20204;-64
2022/11/07 09:46:42;;;;;;;0.30;0.30;;;;;;;13.49;65.34;95655.81;4380005;32;20245;-65
2022/11/07 09:49:40;;;;;;;0.30;0.30;;;;;;;13.52;64.88;95660.53;4371560;32;20189;-64
2022/11/07 09:52:30;;;;;;;1.60;1.00;;;;;;;13.56;65.35;95661.50;4385233;32;20177;-64
2022/11/07 09:55:06;;;;;;;0.20;0.20;;;;;;;13.58;66.64;95661.97;4378104;32;20222;-63
2022/11/07 09:57:36;;;;;;;0.10;0.10;;;;;;;13.73;65.87;95656.28;4364214;32;20220;-64
2022/11/07 10:00:27;;;;;;;0.17;0.17;;;;;;;13.84;64.68;95661.38;4357978;32;20241;-62
2022/11/07 10:02:56;;;;;;;0.00;0.00;;;;;;;13.82;64.44;95655.53;4359229;32;20184;-64
2022/11/07 10:06:10;;;;;;;0.63;0.37;;;;;;;13.88;66.18;95649.00;4306840;32;20336;-63
2022/11/07 10:09:01;;;;;;;0.10;0.10;;;;;;;13.90;65.19;95652.16;4364499;32;20246;-63
2022/11/07 10:11:46;;;;;;;1.33;0.40;;;;;;;13.95;63.30;95649.34;4365717;32;20184;-64
2022/11/07 10:14:35;;;;;;;0.20;0.20;;;;;;;14.00;64.21;95647.34;4377648;32;20188;-65
2022/11/07 10:17:12;;;;;;;0.20;0.20;;;;;;;14.02;64.62;95641.69;4382227;32;20196;-63
2022/11/07 10:19:53;;;;;;;0.23;0.23;;;;;;;14.05;63.80;95647.22;4385027;32;20230;-62
2022/11/07 10:22:34;;;;;;;0.80;0.80;;;;;;;14.13;63.66;95647.56;4369414;32;20195;-66
2022/11/07 10:25:12;;;;;;;0.20;0.20;;;;;;;14.16;62.87;95650.38;4366646;32;20196;-64
2022/11/07 10:27:38;;;;;;;0.40;0.40;;;;;;;14.00;64.20;95651.88;4388451;32;20247;-63
2022/11/07 10:30:15;;;;;;;0.10;0.10;;;;;;;14.14;65.52;95641.09;4387075;32;20193;-65
2022/11/07 10:33:06;;;;;;;0.53;0.43;;;;;;;14.26;62.71;95647.44;4370287;32;20255;-66
2022/11/07 10:35:34;;;;;;;0.30;0.30;;;;;;;14.33;64.74;95650.47;4374264;32;20230;-66
2022/11/07 10:38:20;;;;;;;0.30;0.30;;;;;;;14.26;63.10;95652.78;4377940;32;20193;-66
2022/11/07 10:40:47;;;;;;;4.53;0.53;;;;;;;14.24;62.84;95643.50;4379006;32;20204;-63
2022/11/07 10:43:23;;;;;;;0.30;0.30;;;;;;;14.23;64.35;95640.06;4377473;32;20206;-67
2022/11/07 10:45:50;;;;;;;0.10;0.10;;;;;;;14.38;63.90;95636.97;4372889;32;20193;-62
2022/11/07 10:48:16;;;;;;;1.83;1.73;;;;;;;14.30;63.54;95637.75;4385547;32;20191;-62
2022/11/07 10:50:52;;;;;;;0.30;0.30;;;;;;;14.42;62.26;95634.50;4382418;32;20189;-64
2022/11/07 10:53:19;;;;;;;0.23;0.23;;;;;;;14.42;63.71;95637.16;4371982;32;20193;-64
2022/11/07 10:55:47;;;;;;;0.40;0.40;;;;;;;14.55;63.50;95638.16;4380325;32;20236;-64
2022/11/07 10:58:20;;;;;;;0.10;0.10;;;;;;;14.35;64.01;95642.91;4376644;32;20191;-64
2022/11/07 11:00:57;;;;;;;0.30;0.30;;;;;;;14.39;62.15;95643.88;4391680;32;20215;-63
2022/11/07 11:03:33;;;;;;;0.10;0.10;;;;;;;14.48;61.70;95635.16;4376479;32;20189;-63
2022/11/07 11:06:22;;;;;;;0.00;0.00;;;;;;;14.51;62.82;95637.22;4380648;32;20188;-64
2022/11/07 11:08:51;;;;;;;0.10;0.10;;;;;;;14.53;63.11;95637.69;4372475;32;20239;-66
2022/11/07 11:11:22;;;;;;;0.10;0.10;;;;;;;14.37;62.39;95632.72;4378785;32;20201;-62
2022/11/07 11:13:48;;;;;;;0.00;0.00;;;;;;;14.48;61.59;95629.81;4369670;32;20212;-64
2022/11/07 11:16:26;;;;;;;0.67;0.23;;;;;;;14.71;63.29;95632.06;4379460;32;20201;-65
2022/11/07 11:18:58;;;;;;;0.10;0.10;;;;;;;14.63;61.06;95637.38;4368162;32;20274;-61
2022/11/07 11:21:24;;;;;;;0.20;0.20;;;;;;;14.72;62.02;95632.88;4383781;32;20216;-63
2022/11/07 11:23:52;;;;;;;0.13;0.13;;;;;;;14.64;61.52;95633.63;4371537;32;20193;-63
2022/11/07 11:26:37;;;;;;;0.50;0.30;;;;;;;14.71;60.92;95626.72;4369285;32;20189;-64
2022/11/07 11:29:07;;;;;;;0.00;0.00;;;;;;;14.87;60.06;95634.28;4357929;32;20233;-65
2022/11/07 11:31:44;;;;;;;0.20;0.20;;;;;;;14.83;60.67;95630.66;4372355;32;20218;-66
2022/11/07 11:34:48;;;;;;;0.23;0.23;;;;;;;14.63;62.81;95642.72;4370192;32;20185;-65
2022/11/07 11:37:21;;;;;;;1.43;0.30;;;;;;;14.51;62.38;95640.66;4371776;32;20203;-64
2022/11/07 11:40:04;;;;;;;0.17;0.17;;;;;;;14.60;62.73;95628.09;4380614;32;20177;-63
2022/11/07 11:42:39;;;;;;;0.30;0.30;;;;;;;14.56;62.49;95623.69;4380532;32;20196;-63
2022/11/07 11:45:41;;;;;;;0.17;0.17;;;;;;;14.59;61.83;95625.75;4384131;32;20180;-64
2022/11/07 11:48:25;;;;;;;0.10;0.10;;;;;;;14.47;61.94;95628.25;4380591;32;20203;-64
2022/11/07 11:51:17;;;;;;;0.40;0.40;;;;;;;14.50;60.63;95614.28;4380910;32;20285;-64
2022/11/07 11:53:42;;;;;;;0.17;0.17;;;;;;;14.39;61.44;95613.72;4373745;32;20206;-64
2022/11/07 11:56:44;;;;;;;0.83;0.63;;;;;;;14.37;61.49;95610.59;4385660;32;20241;-64
2022/11/07 11:59:28;;;;;;;0.30;0.30;;;;;;;14.35;61.87;95608.22;4363129;32;20184;-64
2022/11/07 12:02:32;;;;;;;0.10;0.10;;;;;;;14.35;62.15;95600.22;4367876;32;20188;-64
2022/11/07 12:05:21;;;;;;;0.20;0.20;;;;;;;14.32;63.62;95603.53;4378845;32;20230;-64